Terminal Aerodrome Forecast
Issued by NWS Billings, MT

Home | Current Version | Previous Version | Text Only | Print | Product List | Glossary On
Versions: 1 2 3 4 5 6 7 8 9 10 11 12 13 14 15 16 17 18 19 20 21 22 23 24 25 26 27 28 29 30 31 32 33
000
FTUS45 KBYZ 060028 AAA
TAFBIL
TAF AMD
KBIL 060028Z 0600/0624 07011KT 5SM FU VCSH OVC045
      TEMPO 0600/0601 -SHRA BKN035 OVC045
     FM060400 36008KT 4SM -SHRA OVC025
     FM061000 30008KT 5SM FU BKN025
     FM061400 11008KT 5SM FU SCT050=

USA.gov is the U.S. government's official web portal to all federal, state and local government web resources and services.